createdAt,value
2022-12-18T00:01:37.786Z,52.80
2022-12-18T00:04:12.992Z,59.00
2022-12-18T00:06:43.721Z,60.50
2022-12-18T00:09:58.053Z,55.10
2022-12-18T00:12:30.047Z,56.90
2022-12-18T00:15:02.171Z,57.00
2022-12-18T00:17:32.733Z,57.50
2022-12-18T00:20:03.334Z,58.50
2022-12-18T00:22:33.917Z,52.90
2022-12-18T00:25:04.801Z,51.20
2022-12-18T00:27:35.752Z,51.80
2022-12-18T00:30:15.779Z,51.40
2022-12-18T00:32:46.468Z,55.30
2022-12-18T00:35:20.590Z,51.00
2022-12-18T00:37:51.201Z,63.30
2022-12-18T00:40:21.580Z,59.10
2022-12-18T00:43:00.840Z,55.00
2022-12-18T00:45:33.844Z,51.40
2022-12-18T00:48:04.952Z,53.40
2022-12-18T00:50:40.260Z,48.40
2022-12-18T00:53:22.484Z,52.60
2022-12-18T00:55:53.262Z,51.60
2022-12-18T00:58:26.702Z,54.80
2022-12-18T01:01:00.204Z,50.20
2022-12-18T01:03:31.088Z,51.10
2022-12-18T01:06:02.144Z,51.30
2022-12-18T01:08:40.103Z,50.40
2022-12-18T01:11:16.403Z,57.20
2022-12-18T01:13:54.996Z,51.60
2022-12-18T01:16:33.447Z,46.20
2022-12-18T01:19:09.314Z,48.10
2022-12-18T01:21:41.418Z,51.80
2022-12-18T01:24:18.595Z,52.30
2022-12-18T01:26:49.319Z,51.60
2022-12-18T01:29:20.121Z,52.10
2022-12-18T01:31:50.603Z,54.40
2022-12-18T01:34:21.472Z,51.70
2022-12-18T01:36:53.532Z,50.60
2022-12-18T01:39:24.407Z,47.40
2022-12-18T01:42:06.972Z,47.00
2022-12-18T01:44:56.535Z,48.00
2022-12-18T01:47:36.552Z,45.70
2022-12-18T01:52:48.654Z,47.30
2022-12-18T01:55:30.179Z,43.40
2022-12-18T01:58:03.665Z,51.70
2022-12-18T02:00:35.394Z,49.10
2022-12-18T02:03:06.764Z,48.60
2022-12-18T02:05:49.687Z,48.50
2022-12-18T02:08:35.801Z,46.00
2022-12-18T02:11:25.256Z,37.30
2022-12-18T02:14:24.862Z,44.30
2022-12-18T02:17:22.158Z,41.50
2022-12-18T02:20:16.798Z,46.30
2022-12-18T02:23:21.013Z,47.40
2022-12-18T02:26:04.274Z,44.60
2022-12-18T02:28:57.491Z,41.00
2022-12-18T02:31:33.022Z,44.60
2022-12-18T02:34:06.132Z,52.40
2022-12-18T02:36:45.110Z,46.90
2022-12-18T02:39:18.662Z,44.50
2022-12-18T02:42:29.441Z,45.50
2022-12-18T02:46:38.140Z,45.50
2022-12-18T02:49:40.137Z,49.90
2022-12-18T02:52:32.279Z,49.90
2022-12-18T02:55:46.221Z,52.20
2022-12-18T02:58:36.072Z,55.40
2022-12-18T03:01:22.797Z,51.60
2022-12-18T03:04:05.350Z,54.90
2022-12-18T03:06:47.670Z,50.90
2022-12-18T03:09:52.802Z,54.10
2022-12-18T03:12:39.090Z,46.00
2022-12-18T03:15:23.500Z,41.30
2022-12-18T03:18:22.427Z,49.50
2022-12-18T03:21:01.762Z,45.90
2022-12-18T03:23:38.143Z,41.00
2022-12-18T03:26:13.748Z,43.90
2022-12-18T03:29:01.514Z,43.40
2022-12-18T03:31:36.124Z,47.90
2022-12-18T03:34:26.382Z,51.50
2022-12-18T03:36:59.282Z,63.50
2022-12-18T03:39:32.910Z,60.20
2022-12-18T03:42:25.781Z,58.90
2022-12-18T03:45:22.771Z,62.20
2022-12-18T03:48:09.754Z,64.70
2022-12-18T03:51:19.272Z,67.30
2022-12-18T03:54:04.412Z,74.70
2022-12-18T03:56:47.257Z,74.70
2022-12-18T03:59:20.702Z,72.40
2022-12-18T04:01:55.133Z,71.00
2022-12-18T04:04:34.135Z,76.30
2022-12-18T04:07:07.369Z,73.70
2022-12-18T04:09:50.161Z,73.30
2022-12-18T04:12:22.065Z,75.50
2022-12-18T04:14:52.714Z,70.70
2022-12-18T04:17:23.892Z,65.70
2022-12-18T04:19:54.678Z,64.20
2022-12-18T04:22:26.775Z,64.60
2022-12-18T04:25:01.829Z,67.50
2022-12-18T04:27:38.948Z,63.90
2022-12-18T04:30:10.034Z,63.10
2022-12-18T04:32:40.741Z,68.00
2022-12-18T04:35:13.310Z,70.30
2022-12-18T04:37:48.745Z,69.90
2022-12-18T04:40:21.533Z,65.80
2022-12-18T04:42:52.701Z,66.60
2022-12-18T04:45:23.285Z,64.60
2022-12-18T04:47:53.720Z,56.80
2022-12-18T04:50:24.493Z,57.40
2022-12-18T04:52:55.242Z,64.40
2022-12-18T04:55:25.690Z,65.00
2022-12-18T04:57:56.626Z,58.10
2022-12-18T05:00:27.511Z,56.40
2022-12-18T05:02:58.534Z,55.50
2022-12-18T05:05:29.983Z,56.10
2022-12-18T05:08:00.462Z,55.30
2022-12-18T05:10:38.500Z,46.80
2022-12-18T05:13:10.224Z,53.70
2022-12-18T05:15:40.736Z,49.40
2022-12-18T05:19:22.345Z,50.50
2022-12-18T05:21:55.984Z,64.20
2022-12-18T05:24:34.180Z,48.50
2022-12-18T05:27:42.207Z,50.50
2022-12-18T05:30:38.078Z,46.60
2022-12-18T05:33:17.594Z,42.40
2022-12-18T05:36:13.051Z,44.70
2022-12-18T05:38:57.565Z,46.10
2022-12-18T05:41:45.494Z,46.70
2022-12-18T05:44:40.585Z,43.30
2022-12-18T05:47:34.126Z,41.80
2022-12-18T05:51:14.312Z,46.70
2022-12-18T05:53:14.372Z,43.90
2022-12-18T05:56:25.471Z,46.70
2022-12-18T05:59:21.816Z,50.20
2022-12-18T06:02:24.642Z,41.10
2022-12-18T06:04:59.992Z,46.00
2022-12-18T06:07:36.874Z,43.40
2022-12-18T06:10:19.562Z,52.30
2022-12-18T06:12:50.961Z,52.50
2022-12-18T06:15:23.142Z,51.30
2022-12-18T06:17:56.320Z,51.80
2022-12-18T06:20:44.024Z,50.30
2022-12-18T06:23:42.744Z,51.70
2022-12-18T06:26:30.351Z,48.60
2022-12-18T06:29:18.602Z,51.00
2022-12-18T06:32:04.469Z,57.90
2022-12-18T06:35:23.810Z,53.10
2022-12-18T06:38:36.366Z,52.70
2022-12-18T06:41:52.915Z,51.00
2022-12-18T06:45:26.665Z,46.80
2022-12-18T06:51:28.439Z,48.90
2022-12-18T06:54:01.613Z,60.80
2022-12-18T06:57:05.448Z,55.70
2022-12-18T06:59:57.983Z,56.00
2022-12-18T07:02:32.887Z,50.40
2022-12-18T07:05:11.384Z,53.50
2022-12-18T07:07:45.272Z,58.60
2022-12-18T07:10:29.380Z,54.60
2022-12-18T07:13:01.257Z,57.30
2022-12-18T07:15:31.848Z,56.50
2022-12-18T07:18:02.373Z,55.40
2022-12-18T07:20:32.744Z,59.80
2022-12-18T07:23:08.613Z,63.40
2022-12-18T07:25:39.821Z,71.70
2022-12-18T07:28:14.233Z,67.00
2022-12-18T07:30:48.200Z,66.20
2022-12-18T07:33:19.522Z,65.90
2022-12-18T07:35:50.372Z,81.50
2022-12-18T07:38:23.034Z,72.60
2022-12-18T07:40:53.760Z,75.90
2022-12-18T07:43:24.150Z,73.80
2022-12-18T07:45:54.657Z,72.30
2022-12-18T07:48:25.478Z,67.40
2022-12-18T07:50:55.899Z,71.30
2022-12-18T07:53:26.387Z,72.60
2022-12-18T07:56:25.987Z,68.00
2022-12-18T07:58:52.244Z,65.20
2022-12-18T08:01:31.712Z,69.30
2022-12-18T08:04:02.484Z,71.00
2022-12-18T08:06:32.774Z,66.90
2022-12-18T08:09:03.549Z,67.70
2022-12-18T08:11:34.332Z,70.70
2022-12-18T08:14:08.281Z,78.20
2022-12-18T08:16:39.228Z,80.50
2022-12-18T08:19:09.593Z,92.70
2022-12-18T08:21:40.023Z,72.00
2022-12-18T08:24:12.116Z,76.80
2022-12-18T08:26:51.824Z,70.40
2022-12-18T08:29:33.379Z,73.30
2022-12-18T08:32:03.894Z,72.40
2022-12-18T08:34:34.323Z,70.80
2022-12-18T08:37:05.000Z,59.00
2022-12-18T08:39:35.919Z,65.80
2022-12-18T08:42:28.723Z,67.50
2022-12-18T08:45:00.641Z,67.40
2022-12-18T08:47:31.537Z,64.80
2022-12-18T08:50:01.936Z,70.30
2022-12-18T08:52:36.356Z,89.80
2022-12-18T08:55:07.661Z,76.40
2022-12-18T08:57:38.096Z,73.70
2022-12-18T09:00:09.542Z,69.60
2022-12-18T09:02:40.310Z,73.40
2022-12-18T09:05:11.802Z,72.90
2022-12-18T09:07:43.386Z,77.10
2022-12-18T09:10:13.966Z,69.60
2022-12-18T09:12:44.441Z,72.00
2022-12-18T09:15:15.001Z,70.00
2022-12-18T09:17:45.402Z,71.00
2022-12-18T09:20:17.641Z,76.60
2022-12-18T09:22:49.010Z,69.90
2022-12-18T09:25:19.730Z,70.90
2022-12-18T09:27:50.808Z,77.40
2022-12-18T09:30:21.441Z,71.50
2022-12-18T09:32:52.065Z,74.10
2022-12-18T09:35:22.628Z,79.20
2022-12-18T09:37:52.912Z,87.30
2022-12-18T09:40:27.830Z,81.20
2022-12-18T09:43:07.335Z,77.70
2022-12-18T09:45:47.653Z,77.10
2022-12-18T09:48:33.671Z,81.10
2022-12-18T09:51:13.979Z,78.90
2022-12-18T09:53:53.615Z,78.60
2022-12-18T09:56:29.201Z,80.40
2022-12-18T09:59:04.974Z,80.80
2022-12-18T10:01:43.968Z,78.60
2022-12-18T10:04:15.166Z,77.40
2022-12-18T10:06:56.913Z,80.70
2022-12-18T10:09:39.743Z,86.90
2022-12-18T10:17:18.123Z,80.10
2022-12-18T10:19:53.698Z,75.90
2022-12-18T10:22:48.984Z,90.70
2022-12-18T10:25:30.849Z,92.30
2022-12-18T10:28:13.062Z,86.50
2022-12-18T10:30:45.326Z,86.40
2022-12-18T10:33:24.724Z,82.80
2022-12-18T10:35:56.174Z,79.50
2022-12-18T10:38:34.760Z,81.00
2022-12-18T10:42:38.153Z,80.20
2022-12-18T10:45:18.156Z,82.30
2022-12-18T10:50:35.918Z,81.40
2022-12-18T10:53:23.169Z,80.20
2022-12-18T10:55:57.923Z,85.50
2022-12-18T10:58:32.985Z,78.50
2022-12-18T11:01:15.492Z,76.70
2022-12-18T11:04:02.723Z,81.90
2022-12-18T11:06:36.244Z,84.50
2022-12-18T11:09:27.302Z,76.20
2022-12-18T11:12:00.581Z,77.20
2022-12-18T11:14:35.394Z,77.10
2022-12-18T11:20:03.755Z,75.00
2022-12-18T11:28:38.703Z,62.30
2022-12-18T11:31:20.915Z,57.30
2022-12-18T11:36:53.510Z,60.90
2022-12-18T11:39:55.833Z,66.50
2022-12-18T11:43:05.604Z,79.20
2022-12-18T11:46:31.486Z,72.90
2022-12-18T11:49:11.199Z,69.50
2022-12-18T11:52:01.911Z,68.40
2022-12-18T11:54:32.764Z,68.90
2022-12-18T11:57:37.275Z,65.20
2022-12-18T12:00:07.920Z,64.00
2022-12-18T12:03:04.837Z,62.50
2022-12-18T12:05:44.719Z,70.00
2022-12-18T12:09:19.108Z,67.20
2022-12-18T12:12:49.008Z,64.10
2022-12-18T12:18:25.208Z,59.00
2022-12-18T12:21:09.309Z,60.70
2022-12-18T12:24:03.880Z,75.50
2022-12-18T12:26:52.472Z,72.80
2022-12-18T12:29:53.752Z,62.10
2022-12-18T12:32:37.268Z,64.60
2022-12-18T12:35:19.543Z,64.50
2022-12-18T12:38:06.461Z,65.00
2022-12-18T12:40:56.606Z,65.70
2022-12-18T12:43:34.663Z,57.90
2022-12-18T12:46:11.880Z,63.80
2022-12-18T12:49:02.480Z,58.40
2022-12-18T12:51:45.450Z,62.60
2022-12-18T12:54:26.303Z,63.90
2022-12-18T12:57:12.639Z,60.10
2022-12-18T12:59:52.999Z,62.10
2022-12-18T13:02:35.613Z,78.80
2022-12-18T13:05:27.522Z,69.40
2022-12-18T13:08:10.517Z,66.70
2022-12-18T13:10:45.389Z,60.40
2022-12-18T13:13:24.279Z,64.20
2022-12-18T13:16:12.009Z,72.20
2022-12-18T13:18:53.055Z,64.50
2022-12-18T13:21:30.270Z,66.50
2022-12-18T13:24:24.608Z,69.80
2022-12-18T13:26:55.361Z,61.80
2022-12-18T13:29:46.869Z,68.20
2022-12-18T13:32:26.751Z,62.80
2022-12-18T13:35:33.483Z,67.10
2022-12-18T13:38:04.234Z,68.00
2022-12-18T13:41:40.237Z,75.10
2022-12-18T13:44:25.120Z,72.90
2022-12-18T13:46:56.473Z,68.90
2022-12-18T13:49:47.474Z,52.00
2022-12-18T13:52:24.513Z,70.30
2022-12-18T13:54:57.962Z,67.70
2022-12-18T13:57:32.622Z,68.40
2022-12-18T14:00:33.531Z,75.50
2022-12-18T14:03:04.347Z,66.60
2022-12-18T14:05:40.159Z,75.60
2022-12-18T14:08:16.670Z,67.50
2022-12-18T14:10:51.051Z,72.20
2022-12-18T14:13:33.190Z,68.70
2022-12-18T14:16:06.616Z,72.00
2022-12-18T14:18:58.513Z,81.10
2022-12-18T14:22:10.590Z,72.70
2022-12-18T14:24:41.145Z,76.10
2022-12-18T14:27:25.517Z,75.60
2022-12-18T14:29:55.784Z,70.00
2022-12-18T14:32:27.544Z,65.80
2022-12-18T14:34:58.466Z,63.80
2022-12-18T14:37:30.261Z,61.90
2022-12-18T14:40:10.426Z,65.40
2022-12-18T14:42:41.551Z,62.30
2022-12-18T14:45:48.390Z,66.10
2022-12-18T14:48:24.743Z,61.20
2022-12-18T14:51:06.426Z,62.20
2022-12-18T14:53:54.744Z,63.20
2022-12-18T14:56:27.471Z,71.70
2022-12-18T14:59:01.954Z,66.90
2022-12-18T15:01:38.456Z,64.60
2022-12-18T15:04:30.139Z,65.70
2022-12-18T15:07:19.293Z,68.20
2022-12-18T15:10:16.832Z,61.80
2022-12-18T15:12:59.756Z,50.30
2022-12-18T15:15:39.146Z,59.70
2022-12-18T15:18:13.646Z,55.30
2022-12-18T15:20:47.846Z,60.90
2022-12-18T15:23:27.187Z,54.50
2022-12-18T15:26:16.421Z,57.20
2022-12-18T15:29:01.943Z,56.80
2022-12-18T15:31:37.083Z,58.70
2022-12-18T15:34:28.087Z,63.80
2022-12-18T15:37:00.160Z,57.60
2022-12-18T15:39:32.032Z,67.60
2022-12-18T15:42:23.266Z,63.50
2022-12-18T15:44:57.609Z,59.70
2022-12-18T15:47:32.534Z,62.70
2022-12-18T15:50:06.203Z,60.40
2022-12-18T15:52:53.503Z,62.10
2022-12-18T15:55:43.970Z,62.00
2022-12-18T15:58:19.308Z,56.20
2022-12-18T16:00:51.852Z,58.60
2022-12-18T16:03:25.412Z,52.10
2022-12-18T16:06:04.242Z,53.80
2022-12-18T16:08:37.301Z,60.20
2022-12-18T16:11:39.432Z,64.70
2022-12-18T16:14:26.308Z,59.80
2022-12-18T16:17:03.479Z,62.60
2022-12-18T16:19:34.932Z,70.50
2022-12-18T16:22:09.325Z,68.80
2022-12-18T16:24:43.795Z,111.70
2022-12-18T16:27:16.560Z,60.60
2022-12-18T16:29:50.377Z,60.60
2022-12-18T16:32:24.602Z,71.60
2022-12-18T16:35:03.235Z,62.30
2022-12-18T16:37:35.740Z,59.70
2022-12-18T16:40:10.430Z,58.40
2022-12-18T16:42:44.167Z,63.80
2022-12-18T16:45:21.483Z,63.10
2022-12-18T16:47:55.265Z,63.20
2022-12-18T16:50:27.508Z,66.60
2022-12-18T16:52:59.445Z,63.20
2022-12-18T16:55:31.604Z,56.40
2022-12-18T16:58:10.357Z,69.00
2022-12-18T17:00:44.166Z,59.00
2022-12-18T17:03:17.159Z,55.70
2022-12-18T17:05:53.108Z,76.20
2022-12-18T17:08:26.201Z,71.00
2022-12-18T17:10:59.636Z,67.90
2022-12-18T17:13:35.390Z,68.00
2022-12-18T17:16:12.609Z,65.20
2022-12-18T17:18:47.591Z,58.30
2022-12-18T17:21:19.806Z,67.90
2022-12-18T17:28:24.460Z,62.30
2022-12-18T17:30:57.612Z,67.80
2022-12-18T17:38:35.740Z,60.90
2022-12-18T17:41:10.282Z,58.30
2022-12-18T17:49:29.785Z,53.60
2022-12-18T17:52:02.362Z,52.20
2022-12-18T17:54:34.239Z,67.40
2022-12-18T17:57:07.322Z,62.00
2022-12-18T17:59:40.475Z,58.30
2022-12-18T18:02:15.291Z,53.00
2022-12-18T18:04:48.600Z,53.70
2022-12-18T18:07:20.986Z,57.00
2022-12-18T18:09:53.419Z,55.90
2022-12-18T18:12:47.490Z,60.80
2022-12-18T18:15:58.840Z,57.20
2022-12-18T18:18:33.081Z,57.20
2022-12-18T18:21:10.381Z,62.00
2022-12-18T18:23:43.496Z,56.80
2022-12-18T18:26:24.272Z,56.10
2022-12-18T18:29:05.130Z,58.00
2022-12-18T18:31:41.589Z,54.10
2022-12-18T18:34:24.933Z,54.10
2022-12-18T18:36:58.246Z,58.90
2022-12-18T18:39:32.779Z,62.60
2022-12-18T18:42:05.923Z,67.40
2022-12-18T18:44:39.121Z,58.50
2022-12-18T18:47:11.739Z,64.40
2022-12-18T18:49:44.360Z,57.80
2022-12-18T18:52:17.951Z,60.10
2022-12-18T18:55:12.207Z,56.90
2022-12-18T18:57:45.035Z,60.60
2022-12-18T19:00:22.078Z,55.50
2022-12-18T19:03:02.093Z,58.80
2022-12-18T19:05:35.844Z,99.90
2022-12-18T19:08:08.371Z,66.60
2022-12-18T19:10:44.712Z,58.20
2022-12-18T19:13:25.284Z,57.70
2022-12-18T19:16:05.284Z,57.30
2022-12-18T19:18:39.620Z,60.50
2022-12-18T19:21:16.471Z,59.90
2022-12-18T19:23:49.731Z,75.50
2022-12-18T19:26:27.842Z,69.80
2022-12-18T19:29:12.838Z,65.70
2022-12-18T19:31:48.887Z,60.60
2022-12-18T19:34:24.934Z,66.30
2022-12-18T19:36:59.928Z,64.00
2022-12-18T19:39:32.002Z,68.80
2022-12-18T19:42:03.675Z,65.40
2022-12-18T19:44:36.060Z,62.70
2022-12-18T19:47:07.780Z,68.20
2022-12-18T19:49:41.250Z,65.10
2022-12-18T19:52:15.471Z,69.80
2022-12-18T19:54:48.215Z,64.90
2022-12-18T19:57:24.704Z,67.40
2022-12-18T19:59:58.324Z,75.00
2022-12-18T20:02:30.580Z,71.40
2022-12-18T20:05:02.764Z,75.60
2022-12-18T20:07:38.494Z,81.80
2022-12-18T20:10:17.465Z,97.20
2022-12-18T20:12:52.415Z,92.20
2022-12-18T20:15:26.562Z,90.70
2022-12-18T20:18:05.351Z,95.70
2022-12-18T20:20:36.865Z,84.80
2022-12-18T20:23:11.317Z,82.10
2022-12-18T20:25:43.830Z,76.90
2022-12-18T20:28:20.114Z,73.70
2022-12-18T20:30:53.616Z,77.50
2022-12-18T20:33:25.651Z,80.40
2022-12-18T20:36:03.064Z,76.10
2022-12-18T20:38:35.531Z,60.90
2022-12-18T20:41:20.951Z,65.00
2022-12-18T20:43:53.421Z,66.80
2022-12-18T20:46:24.974Z,66.40
2022-12-18T20:49:02.514Z,59.00
2022-12-18T20:51:35.815Z,75.40
2022-12-18T20:54:11.637Z,60.70
2022-12-18T20:56:43.893Z,61.00
2022-12-18T20:59:15.095Z,69.10
2022-12-18T21:01:48.731Z,63.60
2022-12-18T21:04:21.086Z,53.80
2022-12-18T21:07:00.465Z,50.30
2022-12-18T21:09:38.312Z,56.20
2022-12-18T21:12:40.562Z,51.50
2022-12-18T21:15:25.293Z,50.70
2022-12-18T21:17:58.773Z,52.80
2022-12-18T21:20:29.980Z,48.10
2022-12-18T21:23:12.013Z,50.80
2022-12-18T21:25:49.812Z,49.00
2022-12-18T21:28:26.143Z,56.10
2022-12-18T21:30:58.844Z,52.50
2022-12-18T21:33:29.551Z,52.80
2022-12-18T21:36:00.026Z,57.30
2022-12-18T21:38:30.488Z,61.90
2022-12-18T21:41:01.440Z,65.50
2022-12-18T21:44:03.483Z,59.30
2022-12-18T21:46:35.114Z,63.90
2022-12-18T21:49:07.451Z,75.20
2022-12-18T21:51:39.331Z,79.80
2022-12-18T21:54:11.340Z,61.20
2022-12-18T21:57:14.760Z,59.80
2022-12-18T21:59:45.622Z,60.90
2022-12-18T22:02:18.884Z,57.80
2022-12-18T22:04:50.302Z,60.00
2022-12-18T22:07:21.091Z,65.70
2022-12-18T22:09:53.027Z,61.60
2022-12-18T22:12:43.130Z,59.30
2022-12-18T22:15:16.294Z,55.60
2022-12-18T22:18:00.352Z,59.10
2022-12-18T22:20:32.495Z,71.90
2022-12-18T22:24:09.671Z,72.00
2022-12-18T22:26:40.528Z,75.60
2022-12-18T22:29:34.360Z,70.10
2022-12-18T22:32:07.361Z,67.00
2022-12-18T22:34:40.258Z,67.90
2022-12-18T22:37:13.394Z,65.60
2022-12-18T22:39:45.443Z,74.20
2022-12-18T22:42:16.164Z,70.10
2022-12-18T22:44:46.886Z,69.90
2022-12-18T22:47:17.584Z,68.40
2022-12-18T22:49:49.413Z,75.20
2022-12-18T22:52:19.868Z,65.30
2022-12-18T22:54:54.782Z,63.50
2022-12-18T22:57:25.854Z,71.40
2022-12-18T22:59:56.280Z,69.60
2022-12-18T23:02:27.076Z,74.00
2022-12-18T23:04:57.947Z,83.10
2022-12-18T23:07:28.624Z,89.70
2022-12-18T23:10:00.857Z,81.20
2022-12-18T23:12:33.192Z,66.80
2022-12-18T23:15:07.139Z,62.10
2022-12-18T23:17:40.862Z,64.70
2022-12-18T23:20:11.860Z,61.40
2022-12-18T23:22:42.121Z,62.10
2022-12-18T23:25:12.770Z,62.20
2022-12-18T23:27:43.334Z,59.80
2022-12-18T23:30:17.024Z,55.50
2022-12-18T23:32:47.623Z,64.90
2022-12-18T23:35:19.063Z,66.20
2022-12-18T23:38:05.446Z,64.80
2022-12-18T23:40:35.793Z,67.90
2022-12-18T23:43:06.254Z,64.40
2022-12-18T23:45:39.824Z,66.30
2022-12-18T23:49:16.473Z,65.60
2022-12-18T23:51:46.969Z,66.00
2022-12-18T23:54:17.564Z,74.00
2022-12-18T23:56:57.905Z,69.30
2022-12-18T23:59:28.135Z,64.40
